Time;durP1;ratioP1;P1;durP2;ratioP2;P2;SDS_P1;SDS_P2;PMS_P1;PMS_P2;Temp;Humidity;BMP_temperature;BMP_pressure;BME280_temperature;BME280_humidity;BME280_pressure;Samples;Min_cycle;Max_cycle;Signal;HPM_P1;HPM_P2
2022/04/07 00:00:06;;;;;;;8.52;2.70;;;;;;;0.34;64.63;98199.56;4970341;28;20414;-75
2022/04/07 00:02:33;;;;;;;6.90;2.55;;;;;;;0.39;64.48;98196.94;4936376;29;20047;-76
2022/04/07 00:04:59;;;;;;;8.47;3.00;;;;;;;0.30;65.04;98203.78;4943911;28;20080;-75
2022/04/07 00:07:25;;;;;;;6.78;2.60;;;;;;;0.35;64.77;98195.00;4951193;28;20055;-75
2022/04/07 00:09:52;;;;;;;7.20;2.73;;;;;;;0.34;64.89;98193.38;4969424;28;20138;-74
2022/04/07 00:12:19;;;;;;;6.10;2.30;;;;;;;0.25;65.26;98207.25;4966653;28;20554;-75
2022/04/07 00:14:45;;;;;;;6.33;2.47;;;;;;;0.24;65.16;98192.16;4972008;28;20062;-74
2022/04/07 00:17:11;;;;;;;6.78;2.70;;;;;;;0.34;65.13;98199.56;4965326;28;20125;-75
2022/04/07 00:19:38;;;;;;;7.53;2.40;;;;;;;0.38;64.91;98195.31;4963106;28;20078;-74
2022/04/07 00:22:04;;;;;;;5.60;2.38;;;;;;;0.40;65.05;98200.47;4953346;28;20071;-77
2022/04/07 00:24:30;;;;;;;7.10;2.30;;;;;;;0.26;65.58;98194.59;4964078;28;20051;-76
2022/04/07 00:26:57;;;;;;;11.37;2.30;;;;;;;0.38;65.35;98200.69;4946494;28;20058;-76
2022/04/07 00:29:23;;;;;;;5.53;2.20;;;;;;;0.46;65.22;98196.78;4952046;28;20051;-76
2022/04/07 00:31:56;;;;;;;4.97;2.20;;;;;;;0.41;65.07;98202.09;4958509;28;20137;-75
2022/04/07 00:34:23;;;;;;;5.30;2.15;;;;;;;0.42;65.01;98192.97;4970645;28;20420;-77
2022/04/07 00:36:49;;;;;;;5.87;2.30;;;;;;;0.35;65.42;98195.81;4969081;28;20113;-75
2022/04/07 00:39:15;;;;;;;5.95;2.20;;;;;;;0.30;65.48;98193.03;4955518;28;20400;-77
2022/04/07 00:41:42;;;;;;;6.00;2.57;;;;;;;0.36;65.63;98191.22;4972056;28;20058;-75
2022/04/07 00:44:09;;;;;;;5.97;2.40;;;;;;;0.34;65.56;98191.50;4970072;28;20077;-75
2022/04/07 00:46:36;;;;;;;6.68;2.53;;;;;;;0.38;65.49;98189.94;4967388;28;20676;-76
2022/04/07 00:49:03;;;;;;;6.43;2.15;;;;;;;0.40;65.37;98187.00;4954568;28;20463;-77
2022/04/07 00:51:29;;;;;;;5.67;2.13;;;;;;;0.33;65.06;98164.84;4971807;28;20050;-77
2022/04/07 00:53:56;;;;;;;5.53;2.20;;;;;;;0.47;65.06;98189.50;4962284;28;20106;-76
2022/04/07 00:56:22;;;;;;;5.32;2.20;;;;;;;0.32;65.42;98169.44;4954346;28;20149;-77
2022/04/07 00:58:49;;;;;;;7.22;2.40;;;;;;;0.48;65.08;98191.94;4954473;28;20046;-76
2022/04/07 01:01:20;;;;;;;6.90;2.27;;;;;;;0.51;64.92;98188.75;4957120;28;20074;-77
2022/04/07 01:03:46;;;;;;;6.38;2.22;;;;;;;0.41;65.10;98173.31;4955203;28;20411;-76
2022/04/07 01:06:13;;;;;;;5.38;1.98;;;;;;;0.48;64.90;98183.88;4933016;28;20086;-77
2022/04/07 01:08:39;;;;;;;8.25;2.10;;;;;;;0.50;65.08;98187.13;4952273;28;20055;-77
2022/04/07 01:11:05;;;;;;;5.40;2.05;;;;;;;0.48;65.08;98189.25;4970404;28;20063;-77
2022/04/07 01:13:44;;;;;;;6.10;2.30;;;;;;;0.51;64.94;98186.06;4951628;28;20142;-77
2022/04/07 01:16:10;;;;;;;5.10;2.05;;;;;;;0.45;65.06;98180.88;4959552;28;20257;-77
2022/04/07 01:18:38;;;;;;;4.90;2.05;;;;;;;0.54;64.90;98190.94;4956745;28;20061;-75
2022/04/07 01:21:06;;;;;;;5.30;2.10;;;;;;;0.59;64.69;98182.13;4963581;28;20059;-73
2022/04/07 01:23:38;;;;;;;5.03;2.00;;;;;;;0.53;65.06;98186.63;4967991;28;20097;-74
2022/04/07 01:26:05;;;;;;;4.85;2.05;;;;;;;0.46;64.99;98186.00;4963004;28;20141;-75
2022/04/07 01:28:31;;;;;;;7.03;2.00;;;;;;;0.61;64.81;98189.97;4969567;28;20050;-75
2022/04/07 01:30:58;;;;;;;5.22;2.00;;;;;;;0.58;64.90;98193.16;4969076;28;20435;-76
2022/04/07 01:33:24;;;;;;;6.75;2.08;;;;;;;0.55;65.01;98189.09;4952348;28;20050;-77
2022/04/07 01:35:51;;;;;;;4.82;2.10;;;;;;;0.48;65.06;98183.09;4968528;28;20057;-76
2022/04/07 01:38:18;;;;;;;12.88;2.30;;;;;;;0.56;64.99;98194.22;4970288;28;20138;-75
2022/04/07 01:40:46;;;;;;;6.95;2.08;;;;;;;0.54;65.10;98185.56;4970932;28;20471;-77
2022/04/07 01:43:15;;;;;;;4.32;2.08;;;;;;;0.49;65.28;98182.03;4966823;28;20055;-77
2022/04/07 01:45:43;;;;;;;5.53;2.00;;;;;;;0.46;65.66;98182.50;4968042;28;20426;-78
2022/04/07 01:48:09;;;;;;;5.90;2.20;;;;;;;0.49;65.30;98184.72;4968249;28;20655;-78
2022/04/07 01:50:38;;;;;;;6.60;2.22;;;;;;;0.54;65.25;98182.88;4943446;28;20579;-75
2022/04/07 01:53:05;;;;;;;6.10;2.45;;;;;;;0.50;65.22;98187.13;4965521;28;20074;-76
2022/04/07 01:55:32;;;;;;;6.13;2.53;;;;;;;0.44;65.61;98181.94;4969260;28;20427;-77
2022/04/07 01:57:58;;;;;;;5.57;2.30;;;;;;;0.51;65.63;98186.06;4952048;28;20070;-78
2022/04/07 02:00:26;;;;;;;8.00;2.60;;;;;;;0.48;65.46;98175.81;4969546;28;20400;-76
2022/04/07 02:02:52;;;;;;;5.10;2.05;;;;;;;0.54;65.30;98185.56;4950722;28;20046;-74
2022/04/07 02:05:18;;;;;;;6.10;2.20;;;;;;;0.40;65.92;98166.28;4968003;28;20142;-74
2022/04/07 02:07:47;;;;;;;7.60;2.50;;;;;;;0.45;65.94;98180.88;4953444;28;20467;-74
2022/04/07 02:10:14;;;;;;;8.43;2.95;;;;;;;0.48;65.85;98180.41;4952210;28;20150;-74
2022/04/07 02:12:42;;;;;;;6.43;2.60;;;;;;;0.54;65.87;98182.88;4940840;28;20089;-74
2022/04/07 02:15:10;;;;;;;8.02;2.85;;;;;;;0.56;65.49;98185.34;4951226;28;20515;-77
2022/04/07 02:17:37;;;;;;;7.40;3.17;;;;;;;0.55;65.80;98178.31;4958758;28;20047;-77
2022/04/07 02:20:06;;;;;;;7.65;3.20;;;;;;;0.48;65.55;98159.69;4952014;28;20067;-77
2022/04/07 02:22:32;;;;;;;6.43;2.53;;;;;;;0.60;65.72;98172.22;4937243;28;20066;-77
2022/04/07 02:25:02;;;;;;;12.03;2.80;;;;;;;0.57;65.83;98160.06;4970290;28;20059;-77
2022/04/07 02:27:35;;;;;;;7.97;3.23;;;;;;;0.61;65.96;98165.75;4935786;28;20063;-77
2022/04/07 02:30:01;;;;;;;8.10;3.50;;;;;;;0.60;65.91;98164.94;4968141;28;20058;-77
2022/04/07 02:32:29;;;;;;;;;;;;;;;0.63;65.92;98169.00;4950770;28;20062;-77
2022/04/07 02:34:56;;;;;;;7.77;3.30;;;;;;;0.61;66.00;98171.94;4955372;28;19928;-76
2022/04/07 02:37:25;;;;;;;7.63;3.15;;;;;;;0.57;66.40;98184.28;4958230;28;20050;-77
2022/04/07 02:39:51;;;;;;;8.73;3.13;;;;;;;0.62;66.18;98175.44;4932808;28;20046;-77
2022/04/07 02:42:20;;;;;;;8.10;3.30;;;;;;;0.62;66.35;98186.22;4946858;28;20186;-78
2022/04/07 02:44:46;;;;;;;7.75;3.05;;;;;;;0.53;66.72;98180.44;4957967;28;20061;-76
2022/04/07 02:47:13;;;;;;;7.60;3.20;;;;;;;0.62;66.53;98181.63;4964039;28;20086;-76
2022/04/07 02:49:39;;;;;;;7.47;3.17;;;;;;;0.60;66.42;98185.66;4953566;28;20055;-77
2022/04/07 02:52:07;;;;;;;7.97;3.00;;;;;;;0.63;66.74;98185.16;4962052;28;20091;-76
2022/04/07 02:54:34;;;;;;;7.27;2.90;;;;;;;0.63;66.68;98179.78;4959121;28;20149;-76
2022/04/07 02:57:00;;;;;;;8.30;3.30;;;;;;;0.59;66.55;98162.50;4971412;28;20104;-76
2022/04/07 02:59:27;;;;;;;7.93;3.30;;;;;;;0.76;66.30;98187.47;4967845;28;20099;-76
2022/04/07 03:01:56;;;;;;;11.05;3.97;;;;;;;0.81;66.13;98189.44;4965918;28;20048;-76
2022/04/07 03:04:24;;;;;;;8.03;3.40;;;;;;;0.84;66.16;98197.00;4974405;28;20050;-76
2022/04/07 03:06:51;;;;;;;8.00;3.30;;;;;;;0.81;66.18;98203.69;4938416;28;20423;-77
2022/04/07 03:09:18;;;;;;;9.13;3.30;;;;;;;0.85;66.17;98204.00;4969961;28;20138;-75
2022/04/07 03:11:46;;;;;;;7.80;3.10;;;;;;;0.75;66.53;98201.16;4982242;28;20078;-74
2022/04/07 03:14:12;;;;;;;7.82;3.20;;;;;;;0.81;66.36;98201.00;4956746;28;20054;-75
2022/04/07 03:16:39;;;;;;;10.75;3.30;;;;;;;0.79;66.54;98195.03;4972711;28;20056;-75
2022/04/07 03:19:05;;;;;;;7.15;3.03;;;;;;;0.74;66.80;98186.09;4940131;28;20519;-75
2022/04/07 03:21:31;;;;;;;8.27;2.93;;;;;;;0.83;66.58;98189.97;4951165;28;20101;-77
2022/04/07 03:23:58;;;;;;;9.30;3.78;;;;;;;0.77;66.58;98177.50;4959732;28;20051;-75
2022/04/07 03:26:25;;;;;;;9.00;3.33;;;;;;;0.85;66.55;98190.53;4952218;28;20439;-76
2022/04/07 03:28:51;;;;;;;7.90;3.20;;;;;;;0.87;66.56;98198.38;4937977;28;20165;-75
2022/04/07 03:31:17;;;;;;;8.23;3.58;;;;;;;0.81;66.50;98178.66;4970910;28;20361;-76
2022/04/07 03:33:44;;;;;;;8.32;3.63;;;;;;;0.85;66.92;98187.84;4972550;28;20082;-76
2022/04/07 03:36:11;;;;;;;8.55;3.40;;;;;;;0.92;66.65;98191.16;4969985;28;20070;-76
2022/04/07 03:38:38;;;;;;;10.07;3.70;;;;;;;0.96;66.60;98178.03;4950273;28;20055;-76
2022/04/07 03:41:05;;;;;;;7.60;3.20;;;;;;;0.94;66.75;98196.31;4955444;28;20062;-76
2022/04/07 03:43:33;;;;;;;7.68;3.03;;;;;;;0.94;66.87;98180.16;4971493;28;20087;-76
2022/04/07 03:45:59;;;;;;;8.02;3.03;;;;;;;0.98;66.92;98184.78;4943517;28;20090;-76
2022/04/07 03:48:25;;;;;;;9.75;3.30;;;;;;;0.99;66.90;98181.03;4972587;28;20061;-75
2022/04/07 03:50:51;;;;;;;8.38;3.13;;;;;;;0.96;67.12;98172.63;4972696;28;20061;-75
2022/04/07 03:53:17;;;;;;;7.32;3.25;;;;;;;0.87;66.81;98166.88;4970312;28;20075;-75
2022/04/07 03:55:44;;;;;;;8.83;3.40;;;;;;;0.96;67.17;98183.41;4956711;28;20071;-74
2022/04/07 03:58:10;;;;;;;7.17;3.10;;;;;;;0.96;67.14;98175.31;4963452;28;20050;-75
2022/04/07 04:00:37;;;;;;;7.88;3.20;;;;;;;1.00;67.20;98179.13;4963033;28;20057;-75
2022/04/07 04:03:03;;;;;;;7.75;3.17;;;;;;;1.02;66.92;98174.34;4954992;28;20498;-75
2022/04/07 04:05:29;;;;;;;11.15;3.45;;;;;;;1.01;67.29;98180.75;4969984;28;20523;-75
2022/04/07 04:07:56;;;;;;;11.00;4.07;;;;;;;1.08;67.17;98180.56;4972148;28;20086;-76
2022/04/07 04:10:23;;;;;;;8.60;3.80;;;;;;;1.12;66.92;98166.34;4972295;28;20055;-75
2022/04/07 04:12:49;;;;;;;9.13;3.60;;;;;;;1.16;67.18;98176.63;4967219;28;20082;-75
2022/04/07 04:15:15;;;;;;;8.73;3.60;;;;;;;1.16;67.16;98179.31;4969909;28;20833;-75
2022/04/07 04:17:43;;;;;;;22.85;4.22;;;;;;;1.20;66.98;98175.06;4970829;28;20149;-75
2022/04/07 04:20:10;;;;;;;9.27;3.83;;;;;;;1.18;66.82;98175.31;4971892;28;20515;-76
2022/04/07 04:22:37;;;;;;;9.15;5.03;;;;;;;1.26;66.81;98177.56;4971802;28;20078;-75
2022/04/07 04:25:04;;;;;;;10.53;3.80;;;;;;;1.30;66.94;98172.47;4936809;28;20054;-76
2022/04/07 04:27:30;;;;;;;9.88;3.67;;;;;;;1.34;66.69;98175.47;4971260;28;20142;-76
2022/04/07 04:29:56;;;;;;;11.02;3.85;;;;;;;1.40;66.40;98169.03;4967942;28;20051;-77
2022/04/07 04:32:22;;;;;;;11.30;3.88;;;;;;;1.44;66.12;98162.09;4950654;28;20097;-77
2022/04/07 04:34:49;;;;;;;9.95;3.35;;;;;;;1.42;65.87;98161.56;4953296;28;20050;-76
2022/04/07 04:37:16;;;;;;;10.30;3.00;;;;;;;1.47;65.57;98166.16;4969947;28;20645;-75
2022/04/07 04:39:43;;;;;;;10.30;3.60;;;;;;;1.57;65.35;98171.66;4950560;28;20055;-75
2022/04/07 04:42:09;;;;;;;10.43;3.73;;;;;;;1.62;64.82;98169.00;4968603;28;20087;-75
2022/04/07 04:44:35;;;;;;;22.23;5.55;;;;;;;1.69;64.77;98171.47;4969059;28;20086;-75
2022/04/07 04:47:02;;;;;;;13.65;4.10;;;;;;;1.77;64.70;98162.09;4944316;28;20051;-76
2022/04/07 04:49:28;;;;;;;13.55;4.32;;;;;;;1.82;64.36;98151.38;4943980;28;20458;-76
2022/04/07 04:51:55;;;;;;;11.20;4.07;;;;;;;1.82;64.34;98172.94;4949108;28;20055;-75
2022/04/07 04:54:21;;;;;;;11.38;4.30;;;;;;;1.83;64.07;98167.28;4972326;28;20054;-74
2022/04/07 04:56:47;;;;;;;12.05;3.25;;;;;;;1.79;64.01;98170.75;4970552;28;20133;-74
2022/04/07 04:59:14;;;;;;;8.05;2.70;;;;;;;1.79;63.90;98189.59;4954443;28;20581;-76
2022/04/07 05:01:40;;;;;;;8.73;2.97;;;;;;;1.74;63.82;98168.84;4954235;28;20138;-73
2022/04/07 05:04:07;;;;;;;8.18;3.00;;;;;;;1.75;64.05;98183.94;4970685;28;20515;-77
2022/04/07 05:06:33;;;;;;;5.93;2.60;;;;;;;1.75;63.82;98180.41;4950273;28;20436;-76
2022/04/07 05:09:00;;;;;;;8.93;2.75;;;;;;;1.71;64.51;98185.50;4968381;28;20063;-77
2022/04/07 05:11:26;;;;;;;6.97;2.97;;;;;;;1.70;64.63;98173.09;4952388;28;20098;-74
2022/04/07 05:13:52;;;;;;;7.97;2.80;;;;;;;1.73;65.07;98175.31;4969513;28;20058;-76
2022/04/07 05:16:18;;;;;;;7.88;2.85;;;;;;;1.74;64.98;98179.63;4968085;28;20047;-75
2022/04/07 05:18:47;;;;;;;7.28;2.78;;;;;;;1.73;65.63;98182.56;4960831;28;20055;-76
2022/04/07 05:21:14;;;;;;;7.25;2.90;;;;;;;1.67;66.15;98177.13;4971146;28;20475;-73
2022/04/07 05:23:40;;;;;;;8.25;2.95;;;;;;;1.70;66.43;98171.22;4936934;28;20054;-75
2022/04/07 05:26:07;;;;;;;7.50;3.20;;;;;;;1.72;66.76;98180.94;4954292;28;20129;-74
2022/04/07 05:28:34;;;;;;;10.50;3.13;;;;;;;1.61;67.01;98151.19;4949438;28;20086;-75
2022/04/07 05:31:00;;;;;;;9.00;3.15;;;;;;;1.64;67.16;98171.44;4974312;28;20058;-75
2022/04/07 05:33:26;;;;;;;7.22;2.92;;;;;;;1.63;67.47;98167.13;4963730;28;20066;-75
2022/04/07 05:35:53;;;;;;;9.40;3.70;;;;;;;1.66;67.61;98159.34;4953968;28;20187;-75
2022/04/07 05:38:19;;;;;;;12.07;4.20;;;;;;;1.73;68.05;98163.69;4969250;28;20050;-75
2022/04/07 05:40:45;;;;;;;10.10;3.80;;;;;;;1.75;68.07;98166.94;4970538;28;20137;-75
2022/04/07 05:43:12;;;;;;;10.68;4.28;;;;;;;1.76;68.38;98152.41;4969944;28;20073;-75
2022/04/07 05:45:42;;;;;;;12.43;4.60;;;;;;;1.77;68.38;98156.72;4969646;28;20165;-75
2022/04/07 05:48:10;;;;;;;10.23;4.25;;;;;;;1.75;68.67;98146.22;4929873;28;20747;-75
2022/04/07 05:50:36;;;;;;;13.27;5.15;;;;;;;1.76;68.79;98152.41;4963642;28;20050;-75
2022/04/07 05:53:02;;;;;;;11.60;5.35;;;;;;;1.77;68.88;98151.31;4952888;28;20507;-75
2022/04/07 05:55:28;;;;;;;8.95;3.90;;;;;;;1.75;68.92;98140.81;4926302;28;20058;-76
2022/04/07 05:57:55;;;;;;;9.73;4.10;;;;;;;1.83;68.66;98137.63;4966338;28;20051;-74
2022/04/07 06:00:21;;;;;;;8.55;3.83;;;;;;;1.86;68.80;98120.13;4966911;28;20047;-74
2022/04/07 06:02:48;;;;;;;8.73;3.30;;;;;;;1.81;68.97;98125.50;4954425;28;20426;-75
2022/04/07 06:05:18;;;;;;;7.55;3.08;;;;;;;1.79;69.02;98114.13;4943905;28;20302;-77
2022/04/07 06:07:46;;;;;;;9.07;3.42;;;;;;;1.81;69.03;98102.03;4919128;28;20397;-77
2022/04/07 06:10:13;;;;;;;11.02;3.47;;;;;;;1.79;69.27;98106.06;4936432;28;20202;-76
2022/04/07 06:12:43;;;;;;;7.97;3.22;;;;;;;1.73;69.27;98102.53;4937556;28;20601;-75
2022/04/07 06:15:10;;;;;;;8.30;3.38;;;;;;;1.77;69.46;98095.56;4949756;28;20074;-78
2022/04/07 06:17:41;;;;;;;7.32;3.20;;;;;;;1.78;69.23;98090.97;4955496;28;20141;-77
2022/04/07 06:20:10;;;;;;;7.70;3.20;;;;;;;1.80;69.25;98094.22;4953078;28;20062;-74
2022/04/07 06:22:37;;;;;;;9.85;3.42;;;;;;;1.79;69.61;98089.88;4921998;28;20109;-75
2022/04/07 06:25:03;;;;;;;9.17;3.70;;;;;;;1.80;69.49;98092.34;4944156;29;20142;-76
2022/04/07 06:27:34;;;;;;;7.00;3.40;;;;;;;1.81;69.73;98093.97;4964752;28;20061;-77
2022/04/07 06:30:04;;;;;;;7.50;3.13;;;;;;;1.77;69.84;98079.38;4944726;28;20310;-74
2022/04/07 06:32:30;;;;;;;11.13;3.55;;;;;;;1.74;69.96;98087.16;4970062;28;20141;-74
2022/04/07 06:34:57;;;;;;;9.10;3.10;;;;;;;1.78;70.34;98064.84;4936915;28;20459;-73
2022/04/07 06:37:23;;;;;;;7.10;2.90;;;;;;;1.75;70.01;98064.53;4968873;28;20059;-74
2022/04/07 06:39:49;;;;;;;8.40;2.85;;;;;;;1.79;70.19;98071.84;4959808;28;20059;-73
2022/04/07 06:42:15;;;;;;;5.90;2.80;;;;;;;1.78;70.17;98074.78;4959044;28;20149;-70
2022/04/07 06:44:42;;;;;;;5.70;2.40;;;;;;;1.73;70.33;98072.06;4949799;28;20073;-74
2022/04/07 06:47:08;;;;;;;7.43;2.83;;;;;;;1.73;70.31;98064.81;4968230;28;20078;-73
2022/04/07 06:49:34;;;;;;;7.35;2.72;;;;;;;1.75;70.40;98073.44;4968303;28;20055;-71
2022/04/07 06:52:02;;;;;;;7.25;3.00;;;;;;;1.64;70.56;98069.88;4950638;28;20074;-75
2022/04/07 06:54:28;;;;;;;7.10;2.85;;;;;;;1.72;70.65;98062.38;4952287;28;20130;-75
2022/04/07 06:56:54;;;;;;;6.82;2.65;;;;;;;1.79;70.61;98071.84;4951841;28;20051;-73
2022/04/07 06:59:20;;;;;;;7.07;2.80;;;;;;;1.77;70.59;98073.16;4949839;28;20526;-73
2022/04/07 07:01:46;;;;;;;7.80;3.13;;;;;;;1.84;70.39;98079.16;4925305;29;20086;-73
2022/04/07 07:04:13;;;;;;;6.07;2.55;;;;;;;1.82;70.49;98065.94;4951286;28;20705;-72
2022/04/07 07:06:39;;;;;;;10.20;4.40;;;;;;;1.85;70.57;98059.22;4966914;28;20431;-73
2022/04/07 07:09:05;;;;;;;7.47;3.10;;;;;;;1.88;70.49;98060.59;4959234;28;20075;-74
2022/04/07 07:11:32;;;;;;;8.63;3.70;;;;;;;1.85;70.55;98086.19;4968119;28;20063;-74
2022/04/07 07:13:57;;;;;;;6.97;2.80;;;;;;;1.88;70.59;98079.47;4957091;28;20055;-72
2022/04/07 07:16:26;;;;;;;11.13;3.83;;;;;;;1.87;70.74;98073.25;4963872;28;20054;-74
2022/04/07 07:18:52;;;;;;;12.82;3.55;;;;;;;1.78;70.66;98050.53;4953091;28;20456;-74
2022/04/07 07:21:19;;;;;;;8.57;3.38;;;;;;;1.90;70.71;98061.13;4941334;28;20516;-74
2022/04/07 07:23:45;;;;;;;7.32;3.05;;;;;;;1.89;70.73;98068.41;4953790;28;20130;-73
2022/04/07 07:26:13;;;;;;;11.88;5.30;;;;;;;1.91;70.93;98062.75;4940171;29;20056;-72
2022/04/07 07:28:39;;;;;;;8.38;3.80;;;;;;;1.92;70.91;98059.78;4946321;28;20110;-73
2022/04/07 07:31:05;;;;;;;10.85;3.97;;;;;;;1.96;70.63;98060.91;4950187;28;20475;-73
2022/04/07 07:33:31;;;;;;;11.27;5.10;;;;;;;2.00;70.80;98060.38;4969344;28;20062;-74
2022/04/07 07:35:57;;;;;;;13.05;4.13;;;;;;;1.98;70.84;98050.69;4938216;28;20422;-72
2022/04/07 07:38:23;;;;;;;10.65;3.75;;;;;;;2.01;71.03;98043.94;4952461;28;20066;-74
2022/04/07 07:40:49;;;;;;;7.63;3.10;;;;;;;2.04;71.02;98038.03;4952173;28;20056;-72
2022/04/07 07:43:16;;;;;;;9.27;3.55;;;;;;;2.05;71.06;98033.44;4958140;28;20157;-74
2022/04/07 07:45:43;;;;;;;10.68;3.65;;;;;;;2.05;70.94;98045.06;4970847;28;20535;-73
2022/04/07 07:48:09;;;;;;;12.95;6.03;;;;;;;2.02;71.19;98037.47;4972459;28;20562;-74
2022/04/07 07:50:37;;;;;;;10.48;4.88;;;;;;;2.00;70.92;98028.81;4972571;28;20090;-72
2022/04/07 07:53:03;;;;;;;9.93;4.13;;;;;;;2.01;71.25;98038.53;4961012;28;20054;-74
2022/04/07 07:55:30;;;;;;;13.23;4.80;;;;;;;2.09;71.18;98031.84;4953615;28;20145;-72
2022/04/07 07:57:56;;;;;;;13.13;4.80;;;;;;;2.15;71.18;98029.97;4931545;28;20051;-72
2022/04/07 08:00:24;;;;;;;9.77;4.30;;;;;;;2.18;71.05;98034.84;4969388;28;20082;-74
2022/04/07 08:02:50;;;;;;;13.60;4.80;;;;;;;2.19;71.08;98036.50;4970157;28;20062;-70
2022/04/07 08:05:17;;;;;;;14.90;5.25;;;;;;;2.21;71.10;98029.75;4973092;28;20058;-73
2022/04/07 08:07:44;;;;;;;14.02;5.38;;;;;;;2.22;71.05;98041.34;4937311;28;20089;-71
2022/04/07 08:10:10;;;;;;;13.20;4.50;;;;;;;2.20;71.03;98027.31;4968890;28;20699;-71
2022/04/07 08:12:39;;;;;;;;;;;;;;;2.23;71.28;98013.31;4939021;28;20150;-71
2022/04/07 08:15:06;;;;;;;13.23;4.82;;;;;;;2.23;71.26;98005.22;4934415;29;20292;-72
2022/04/07 08:17:34;;;;;;;14.07;4.80;;;;;;;2.28;71.01;98016.00;4969723;28;20061;-71
2022/04/07 08:20:01;;;;;;;13.40;5.20;;;;;;;2.26;70.94;98010.06;4967538;28;20059;-71
2022/04/07 08:22:30;;;;;;;12.75;5.45;;;;;;;2.26;71.26;98002.00;4957806;28;20058;-71
2022/04/07 08:24:56;;;;;;;16.27;4.50;;;;;;;2.32;71.67;98014.41;4948450;28;20051;-73
2022/04/07 08:27:25;;;;;;;16.60;5.88;;;;;;;2.37;71.21;98003.66;4972101;28;20058;-70
2022/04/07 08:29:52;;;;;;;17.55;6.10;;;;;;;2.41;71.38;98010.13;4947342;28;20081;-71
2022/04/07 08:32:18;;;;;;;13.40;5.45;;;;;;;2.43;71.44;98003.66;4969588;28;20435;-70
2022/04/07 08:34:44;;;;;;;17.10;5.47;;;;;;;2.43;71.75;97993.69;4952056;28;20055;-70
2022/04/07 08:37:10;;;;;;;14.77;5.80;;;;;;;2.39;71.84;98000.66;4954020;28;20062;-70
2022/04/07 08:39:36;;;;;;;14.02;4.88;;;;;;;2.48;71.91;98000.97;4941304;28;20086;-70
2022/04/07 08:42:06;;;;;;;13.98;6.22;;;;;;;2.54;71.74;97995.31;4972129;28;20058;-71
2022/04/07 08:44:32;;;;;;;14.10;5.40;;;;;;;2.53;71.91;97999.09;4955492;28;20085;-72
2022/04/07 08:47:00;;;;;;;17.08;5.60;;;;;;;2.54;71.98;97994.53;4954504;28;20538;-73
2022/04/07 08:49:29;;;;;;;13.65;5.78;;;;;;;2.50;71.68;97988.84;4946940;28;20105;-73
2022/04/07 08:51:57;;;;;;;15.02;6.18;;;;;;;2.54;72.42;97984.53;4970285;28;20055;-73
2022/04/07 08:54:23;;;;;;;12.88;5.15;;;;;;;2.55;72.01;97980.75;4968560;28;20097;-73
2022/04/07 08:56:50;;;;;;;11.60;4.60;;;;;;;2.55;72.24;97969.97;4940810;28;20069;-77
2022/04/07 08:59:16;;;;;;;14.55;5.38;;;;;;;2.62;72.06;97982.41;4945848;28;20055;-76
2022/04/07 09:01:43;;;;;;;15.20;5.43;;;;;;;2.66;72.45;97975.38;4944920;28;20097;-76
2022/04/07 09:04:11;;;;;;;15.52;6.45;;;;;;;2.69;72.24;97954.06;4968045;28;20113;-77
2022/04/07 09:06:39;;;;;;;13.15;6.13;;;;;;;2.65;72.05;97963.78;4960265;28;20069;-76
2022/04/07 09:09:10;;;;;;;13.60;5.70;;;;;;;2.72;72.53;97963.50;4967802;28;20063;-76
2022/04/07 09:11:37;;;;;;;17.95;6.88;;;;;;;2.78;72.22;97961.63;4966372;28;20534;-76
2022/04/07 09:14:03;;;;;;;16.88;6.32;;;;;;;2.84;72.02;97957.88;4933796;28;20428;-75
2022/04/07 09:16:30;;;;;;;17.48;6.03;;;;;;;2.85;72.05;97954.09;4960342;28;20515;-76
2022/04/07 09:18:56;;;;;;;14.80;6.07;;;;;;;2.88;72.22;97953.53;4954453;28;20401;-77
2022/04/07 09:21:23;;;;;;;16.25;6.63;;;;;;;2.81;72.05;97934.91;4968956;28;20417;-75
2022/04/07 09:23:50;;;;;;;18.55;6.82;;;;;;;2.87;71.81;97941.13;4949907;28;20066;-76
2022/04/07 09:26:17;;;;;;;15.23;6.82;;;;;;;2.97;71.99;97949.25;4937850;28;20059;-76
2022/04/07 09:28:43;;;;;;;17.00;6.45;;;;;;;3.00;71.95;97942.47;4968385;28;20070;-76
2022/04/07 09:31:13;;;;;;;15.75;5.70;;;;;;;2.99;72.10;97946.25;4950949;28;20455;-74
2022/04/07 09:33:40;;;;;;;14.65;6.05;;;;;;;3.04;72.02;97953.53;4964472;28;20058;-73
2022/04/07 09:36:08;;;;;;;14.80;5.57;;;;;;;3.05;71.90;97956.00;4920426;28;20059;-74
2022/04/07 09:38:35;;;;;;;15.10;5.82;;;;;;;3.07;72.11;97958.41;4954739;28;20104;-74
2022/04/07 09:41:06;;;;;;;11.40;4.88;;;;;;;3.11;72.04;97941.38;4946455;28;20138;-74
2022/04/07 09:43:47;;;;;;;12.75;5.50;;;;;;;3.12;71.83;97937.59;4953206;28;20054;-75
2022/04/07 09:46:15;;;;;;;16.67;6.53;;;;;;;3.08;72.04;97939.25;4951242;28;20047;-74
2022/04/07 09:48:59;;;;;;;19.48;6.53;;;;;;;3.21;71.83;97940.56;4966606;28;20089;-75
2022/04/07 09:51:28;;;;;;;19.67;5.85;;;;;;;3.24;71.91;97929.22;4960610;28;20055;-75
2022/04/07 09:53:56;;;;;;;15.75;6.35;;;;;;;3.29;71.74;97930.31;4971084;28;20504;-75
2022/04/07 09:56:29;;;;;;;19.48;7.07;;;;;;;3.30;72.02;97923.81;4949791;28;20154;-74
2022/04/07 09:58:56;;;;;;;17.23;6.57;;;;;;;3.31;71.85;97912.72;4949565;28;20058;-76
2022/04/07 10:01:23;;;;;;;17.42;7.22;;;;;;;3.42;71.82;97920.81;4957369;28;20055;-75
2022/04/07 10:03:51;;;;;;;17.50;6.40;;;;;;;3.44;71.69;97916.78;4948092;28;20058;-74
2022/04/07 10:06:18;;;;;;;14.15;6.03;;;;;;;3.50;71.67;97912.97;4959187;28;20511;-76
2022/04/07 10:08:48;;;;;;;16.48;6.65;;;;;;;3.44;71.61;97913.25;4964229;28;20115;-75
2022/04/07 10:11:16;;;;;;;21.05;6.80;;;;;;;3.52;71.57;97910.00;4969911;28;20157;-74
2022/04/07 10:13:44;;;;;;;14.75;6.38;;;;;;;3.53;71.73;97906.22;4967747;28;20050;-71
2022/04/07 10:16:11;;;;;;;17.60;5.90;;;;;;;3.54;71.66;97900.50;4965849;28;20145;-75
2022/04/07 10:18:44;;;;;;;14.07;6.00;;;;;;;3.54;71.80;97891.59;4963009;28;20137;-73
2022/04/07 10:21:21;;;;;;;17.48;6.95;;;;;;;3.60;71.95;97897.81;4952975;28;20500;-74
2022/04/07 10:23:57;;;;;;;17.40;7.18;;;;;;;3.61;72.00;97899.44;4964463;28;20178;-74
2022/04/07 10:26:26;;;;;;;14.88;6.57;;;;;;;3.64;71.96;97906.97;4947374;28;20058;-75
2022/04/07 10:28:55;;;;;;;19.85;6.10;;;;;;;3.51;72.01;97878.63;4952271;28;20047;-75
2022/04/07 10:31:25;;;;;;;18.58;6.13;;;;;;;3.66;72.18;97910.22;4945532;28;20078;-75
2022/04/07 10:33:51;;;;;;;11.32;5.28;;;;;;;3.68;72.22;97903.44;4937809;28;20055;-74
2022/04/07 10:36:19;;;;;;;12.13;6.07;;;;;;;3.74;71.96;97914.25;4954603;28;20170;-75
2022/04/07 10:38:47;;;;;;;16.02;6.00;;;;;;;3.73;72.02;97910.72;4967345;28;20059;-75
2022/04/07 10:41:47;;;;;;;15.63;6.30;;;;;;;3.72;72.11;97900.97;4938138;28;20435;-75
2022/04/07 10:44:15;;;;;;;12.65;5.97;;;;;;;3.78;71.98;97901.78;4968578;28;20054;-76
2022/04/07 10:46:42;;;;;;;11.63;5.30;;;;;;;3.82;72.12;97909.06;4933462;28;20439;-73
2022/04/07 10:49:10;;;;;;;12.45;5.40;;;;;;;3.85;71.96;97902.31;4951950;28;20086;-75
2022/04/07 10:51:42;;;;;;;11.95;5.50;;;;;;;3.93;72.02;97890.91;4970894;28;20419;-74
2022/04/07 10:54:09;;;;;;;12.60;6.00;;;;;;;4.00;71.77;97898.72;4968581;28;20067;-75
2022/04/07 10:56:38;;;;;;;16.35;6.13;;;;;;;3.97;72.03;97894.66;4952089;28;20475;-75
2022/04/07 10:59:19;;;;;;;12.40;5.72;;;;;;;4.06;71.70;97889.50;4967285;28;20058;-74
2022/04/07 11:02:02;;;;;;;10.93;5.72;;;;;;;4.14;71.93;97888.09;4948502;28;20062;-74
2022/04/07 11:04:40;;;;;;;13.38;6.68;;;;;;;4.17;71.76;97879.44;4972322;28;20102;-74
2022/04/07 11:07:13;;;;;;;10.88;5.80;;;;;;;4.15;71.78;97869.97;4949774;28;20070;-75
2022/04/07 11:09:50;;;;;;;11.25;5.97;;;;;;;4.24;71.73;97873.72;4939225;28;20059;-74
2022/04/07 11:12:19;;;;;;;11.60;6.22;;;;;;;4.31;71.86;97884.22;4952031;28;20555;-74
2022/04/07 11:14:46;;;;;;;12.00;6.28;;;;;;;4.35;71.64;97877.16;4937299;28;20074;-75
2022/04/07 11:17:22;;;;;;;11.20;6.18;;;;;;;4.38;71.92;97873.88;4953453;28;20117;-76
2022/04/07 11:19:59;;;;;;;12.38;5.45;;;;;;;4.30;72.14;97859.06;4953341;29;20560;-78
2022/04/07 11:22:47;;;;;;;11.77;6.07;;;;;;;4.36;72.03;97857.91;4963475;28;20082;-78
2022/04/07 11:25:27;;;;;;;14.77;6.32;;;;;;;4.47;72.17;97853.25;4949268;28;20046;-78
2022/04/07 11:28:14;;;;;;;15.75;6.53;;;;;;;4.53;72.04;97849.41;4951269;28;20077;-79
2022/04/07 11:30:49;;;;;;;13.60;7.03;;;;;;;4.57;72.08;97846.94;4956895;28;20051;-78
2022/04/07 11:33:35;;;;;;;15.02;7.18;;;;;;;4.55;72.18;97841.03;4972162;28;20058;-77
2022/04/07 11:36:31;;;;;;;15.52;8.10;;;;;;;4.64;72.26;97852.03;4968127;28;20042;-78
2022/04/07 11:39:11;;;;;;;15.70;7.90;;;;;;;4.67;72.42;97846.84;4959291;28;20047;-78
2022/04/07 11:41:41;;;;;;;17.00;7.38;;;;;;;4.69;72.21;97846.56;4967533;28;20072;-78